Time;durP1;ratioP1;P1;durP2;ratioP2;P2;SDS_P1;SDS_P2;PMS_P1;PMS_P2;Temp;Humidity;BMP_temperature;BMP_pressure;BME280_temperature;BME280_humidity;BME280_pressure;Samples;Min_cycle;Max_cycle;Signal;HPM_P1;HPM_P2
2021/11/28 00:01:53;;;;;;;16.90;9.03;;;4.40;99.90;;;;;;4221696;28;20284;-67
2021/11/28 00:03:54;;;;;;;17.70;9.50;;;4.40;99.90;;;;;;4221589;28;20369;-64
2021/11/28 00:06:01;;;;;;;17.17;9.07;;;4.50;99.90;;;;;;4221903;28;20260;-65
2021/11/28 00:14:20;;;;;;;13.80;8.43;;;4.70;99.90;;;;;;4224758;28;20340;-65
2021/11/28 00:16:21;;;;;;;13.93;8.27;;;4.70;99.90;;;;;;4224651;28;20437;-64
2021/11/28 00:18:23;;;;;;;13.53;8.23;;;4.70;99.90;;;;;;4225329;28;20314;-64
2021/11/28 00:20:24;;;;;;;12.77;8.13;;;4.70;99.90;;;;;;4224553;27;20316;-64
2021/11/28 00:22:25;;;;;;;14.57;9.03;;;4.60;99.90;;;;;;4223577;28;20252;-64
2021/11/28 00:24:26;;;;;;;15.27;9.30;;;4.60;99.90;;;;;;4225117;28;20726;-64
2021/11/28 00:26:27;;;;;;;14.27;9.47;;;4.50;99.90;;;;;;4223946;28;20689;-64
2021/11/28 00:28:29;;;;;;;13.77;8.97;;;4.50;99.90;;;;;;4224663;28;20299;-67
2021/11/28 00:30:31;;;;;;;17.00;9.50;;;4.40;99.90;;;;;;4224554;28;20696;-64
2021/11/28 00:32:32;;;;;;;16.93;8.90;;;4.30;99.90;;;;;;4224723;28;20275;-65
2021/11/28 00:34:33;;;;;;;15.80;9.97;;;4.30;99.90;;;;;;4224187;28;20256;-64
2021/11/28 00:36:35;;;;;;;16.60;9.27;;;4.20;99.90;;;;;;4224417;28;20290;-64
2021/11/28 00:38:36;;;;;;;15.87;8.83;;;4.20;99.90;;;;;;4224251;28;20309;-65
2021/11/28 00:40:37;;;;;;;18.50;11.07;;;4.10;99.90;;;;;;4224152;28;20337;-64
2021/11/28 00:42:38;;;;;;;18.23;10.53;;;4.10;99.90;;;;;;4224370;28;20654;-65
2021/11/28 00:44:40;;;;;;;19.10;11.00;;;4.10;99.90;;;;;;4224436;28;20252;-65
2021/11/28 00:46:41;;;;;;;17.27;10.37;;;4.00;99.90;;;;;;4224429;28;20260;-65
2021/11/28 00:48:44;;;;;;;16.13;9.97;;;4.00;99.90;;;;;;4224626;28;20260;-66
2021/11/28 00:50:46;;;;;;;20.13;12.97;;;3.90;99.90;;;;;;4224398;28;20252;-64
2021/11/28 00:52:47;;;;;;;17.70;11.30;;;3.90;99.90;;;;;;4224539;27;20317;-64
2021/11/28 00:54:48;;;;;;;20.23;10.93;;;3.80;99.90;;;;;;4224618;28;20323;-64
2021/11/28 00:56:50;;;;;;;19.03;11.67;;;3.80;99.90;;;;;;4224101;28;20317;-65
2021/11/28 00:58:51;;;;;;;23.47;12.90;;;3.70;99.90;;;;;;4224342;28;20672;-66
2021/11/28 01:00:52;;;;;;;19.63;11.77;;;3.60;99.90;;;;;;4223925;28;20248;-64
2021/11/28 01:02:53;;;;;;;18.60;11.43;;;3.60;99.90;;;;;;4224138;28;20321;-68
2021/11/28 01:04:54;;;;;;;19.57;12.23;;;3.60;99.90;;;;;;4223743;28;20252;-64
2021/11/28 01:06:55;;;;;;;20.90;12.10;;;3.60;99.90;;;;;;4222894;28;20313;-65
2021/11/28 01:08:57;;;;;;;18.47;11.53;;;3.60;99.90;;;;;;4223695;28;20305;-69
2021/11/28 01:10:58;;;;;;;17.43;11.23;;;3.60;99.90;;;;;;4224323;27;20279;-65
2021/11/28 01:13:00;;;;;;;21.07;11.73;;;3.60;99.90;;;;;;4223911;27;20265;-64
2021/11/28 01:15:02;;;;;;;16.87;10.77;;;3.60;99.90;;;;;;4224200;28;20749;-63
2021/11/28 01:17:04;;;;;;;22.57;12.20;;;3.60;99.90;;;;;;4224296;28;20667;-64
2021/11/28 01:19:05;;;;;;;19.13;11.77;;;3.70;99.90;;;;;;4224183;28;20320;-69
2021/11/28 01:21:07;;;;;;;19.13;10.40;;;3.60;99.90;;;;;;4223337;28;20271;-64
2021/11/28 01:23:08;;;;;;;19.63;11.23;;;3.70;99.90;;;;;;4224173;27;20292;-68
2021/11/28 01:25:12;;;;;;;15.43;9.97;;;3.70;99.90;;;;;;4224027;27;20336;-64
2021/11/28 01:27:15;;;;;;;20.70;11.83;;;3.70;99.90;;;;;;4223921;27;20800;-63
2021/11/28 01:29:16;;;;;;;18.53;11.23;;;3.80;99.90;;;;;;4223397;28;20601;-64
2021/11/28 01:31:17;;;;;;;17.03;10.70;;;3.70;99.90;;;;;;4223486;28;20678;-63
2021/11/28 01:33:19;;;;;;;19.27;11.33;;;3.70;99.90;;;;;;4223846;28;20272;-63
2021/11/28 01:35:20;;;;;;;19.73;11.20;;;3.70;99.90;;;;;;4223718;27;20337;-63
2021/11/28 01:37:21;;;;;;;18.87;11.27;;;3.70;99.90;;;;;;4222191;27;20739;-64
2021/11/28 01:39:23;;;;;;;20.47;11.30;;;3.70;99.90;;;;;;4223343;28;20297;-63
2021/11/28 01:41:24;;;;;;;17.87;11.20;;;3.70;99.90;;;;;;4223278;28;20276;-64
2021/11/28 01:43:25;;;;;;;17.73;12.00;;;3.70;99.90;;;;;;4223610;27;20695;-63
2021/11/28 01:45:29;;;;;;;18.17;11.23;;;3.70;99.90;;;;;;4223090;28;20325;-63
2021/11/28 01:47:31;;;;;;;22.90;12.40;;;3.60;99.90;;;;;;4223388;28;20280;-63
2021/11/28 01:49:32;;;;;;;23.83;13.07;;;3.50;99.90;;;;;;4222473;28;20799;-69
2021/11/28 01:51:34;;;;;;;20.33;11.97;;;3.50;99.90;;;;;;4223030;28;20345;-64
2021/11/28 01:53:36;;;;;;;19.83;12.50;;;3.40;99.90;;;;;;4223435;28;20724;-64
2021/11/28 01:55:38;;;;;;;20.80;11.37;;;3.40;99.90;;;;;;4223121;28;20844;-64
2021/11/28 01:57:41;;;;;;;21.63;12.20;;;3.50;99.90;;;;;;4223455;28;20256;-68
2021/11/28 01:59:43;;;;;;;18.63;12.50;;;3.50;99.90;;;;;;4223031;28;20318;-63
2021/11/28 02:01:44;;;;;;;21.03;12.43;;;3.50;99.90;;;;;;4223070;28;20260;-67
2021/11/28 02:03:47;;;;;;;19.67;11.33;;;3.50;99.90;;;;;;4222915;27;20629;-63
2021/11/28 02:05:53;;;;;;;18.07;11.33;;;3.40;99.90;;;;;;4222683;28;20701;-63
2021/11/28 02:07:55;;;;;;;20.67;12.67;;;3.40;99.90;;;;;;4222674;28;20265;-63
2021/11/28 02:09:57;;;;;;;21.13;13.10;;;3.40;99.90;;;;;;4222723;28;20302;-62
2021/11/28 02:11:58;;;;;;;21.93;13.03;;;3.40;99.90;;;;;;4222986;28;20321;-63
2021/11/28 02:13:59;;;;;;;22.50;13.23;;;3.30;99.90;;;;;;4223307;27;20722;-66
2021/11/28 02:16:01;;;;;;;23.97;13.50;;;3.30;99.90;;;;;;4222662;28;20264;-62
2021/11/28 02:18:02;;;;;;;23.10;13.60;;;3.30;99.90;;;;;;4222875;28;20275;-62
2021/11/28 02:20:06;;;;;;;21.33;12.13;;;3.30;99.90;;;;;;4222780;27;20317;-63
2021/11/28 02:22:08;;;;;;;21.63;12.90;;;3.40;99.90;;;;;;4222616;28;20252;-63
2021/11/28 02:24:10;;;;;;;25.17;14.87;;;3.40;99.90;;;;;;4222447;28;20364;-65
2021/11/28 02:26:18;;;;;;;25.70;13.60;;;3.40;99.90;;;;;;4223566;28;20333;-63
2021/11/28 02:28:19;;;;;;;25.07;13.97;;;3.30;99.90;;;;;;4222842;28;20325;-63
2021/11/28 02:30:20;;;;;;;24.33;12.47;;;3.30;99.90;;;;;;4222678;28;20649;-64
2021/11/28 02:32:21;;;;;;;20.90;11.80;;;3.30;99.90;;;;;;4223133;28;20268;-65
2021/11/28 02:34:23;;;;;;;26.00;15.47;;;3.20;99.90;;;;;;4222843;28;20706;-63
2021/11/28 02:36:24;;;;;;;22.47;13.27;;;3.30;99.90;;;;;;4223070;28;20325;-63
2021/11/28 02:38:25;;;;;;;27.23;14.23;;;3.30;99.90;;;;;;4222883;28;20272;-65
2021/11/28 02:40:27;;;;;;;26.37;13.80;;;3.30;99.90;;;;;;4222688;27;20264;-67
2021/11/28 02:42:28;;;;;;;23.80;12.67;;;3.30;99.90;;;;;;4222356;28;20272;-63
2021/11/28 02:44:31;;;;;;;20.13;12.60;;;3.30;99.90;;;;;;4222742;28;20757;-64
2021/11/28 02:46:33;;;;;;;24.70;14.67;;;3.30;99.90;;;;;;4222264;28;20317;-63
2021/11/28 02:48:34;;;;;;;34.03;17.40;;;3.20;99.90;;;;;;4222298;28;20268;-64
2021/11/28 02:50:36;;;;;;;24.00;13.50;;;3.20;99.90;;;;;;4222900;28;20676;-64
2021/11/28 02:52:38;;;;;;;25.37;13.67;;;3.20;99.90;;;;;;4222641;28;20325;-63
2021/11/28 02:54:39;;;;;;;23.23;13.57;;;3.10;99.90;;;;;;4222694;28;20721;-68
2021/11/28 02:56:42;;;;;;;23.43;14.43;;;3.10;99.90;;;;;;4223416;28;20287;-63
2021/11/28 02:58:46;;;;;;;25.40;14.23;;;3.00;99.90;;;;;;4222685;28;20268;-64
2021/11/28 03:00:55;;;;;;;24.63;13.30;;;3.00;99.90;;;;;;4222326;28;21066;-64
2021/11/28 03:02:57;;;;;;;23.93;12.90;;;3.00;99.90;;;;;;4222601;28;20662;-64
2021/11/28 03:04:58;;;;;;;24.03;13.73;;;3.00;99.90;;;;;;4222768;28;20300;-63
2021/11/28 03:06:59;;;;;;;22.40;13.20;;;3.00;99.90;;;;;;4222092;28;20325;-64
2021/11/28 03:09:00;;;;;;;22.70;12.63;;;3.00;99.90;;;;;;4222592;28;20353;-64
2021/11/28 03:11:02;;;;;;;19.40;12.13;;;3.00;99.90;;;;;;4222262;28;20782;-64
2021/11/28 03:13:06;;;;;;;18.10;11.73;;;3.10;99.90;;;;;;4222223;28;20293;-64
2021/11/28 03:15:08;;;;;;;18.93;11.77;;;3.10;99.90;;;;;;4222445;28;20321;-67
2021/11/28 03:17:09;;;;;;;19.70;11.93;;;3.20;99.90;;;;;;4222417;28;20288;-65
2021/11/28 03:19:10;;;;;;;20.70;11.40;;;3.30;99.90;;;;;;4221850;28;20316;-64
2021/11/28 03:21:14;;;;;;;22.33;11.53;;;3.40;99.90;;;;;;4222097;28;20817;-64
2021/11/28 03:23:16;;;;;;;18.47;10.57;;;3.50;99.90;;;;;;4222157;28;20309;-64
2021/11/28 03:25:20;;;;;;;18.13;11.60;;;3.60;99.90;;;;;;4222541;28;20297;-64
2021/11/28 03:27:21;;;;;;;20.10;12.40;;;3.60;99.90;;;;;;4222114;28;20349;-64
2021/11/28 03:29:27;;;;;;;18.30;11.17;;;3.60;99.90;;;;;;4221272;28;20272;-64
2021/11/28 03:31:30;;;;;;;18.07;10.50;;;3.50;99.90;;;;;;4222510;28;20283;-64
2021/11/28 03:33:32;;;;;;;17.07;10.27;;;3.60;99.90;;;;;;4222391;28;20293;-65
2021/11/28 03:35:33;;;;;;;20.63;11.57;;;3.60;99.90;;;;;;4222166;28;20265;-67
2021/11/28 03:37:37;;;;;;;19.87;11.90;;;3.50;99.90;;;;;;4221888;28;20272;-65
2021/11/28 03:39:38;;;;;;;20.03;12.03;;;3.50;99.90;;;;;;4222496;28;20381;-65
2021/11/28 03:41:44;;;;;;;20.23;11.47;;;3.30;99.90;;;;;;4222040;28;20720;-65
2021/11/28 03:43:46;;;;;;;17.53;10.73;;;3.30;99.90;;;;;;4224713;28;20291;-66
2021/11/28 03:45:47;;;;;;;22.00;12.80;;;3.20;99.90;;;;;;4225617;27;20272;-64
2021/11/28 03:47:48;;;;;;;21.13;11.93;;;3.20;99.90;;;;;;4225756;27;20670;-65
2021/11/28 03:49:50;;;;;;;20.13;12.73;;;3.20;99.90;;;;;;4225189;28;20264;-65
2021/11/28 03:51:51;;;;;;;20.17;11.67;;;3.20;99.90;;;;;;4225012;28;20268;-64
2021/11/28 03:53:53;;;;;;;20.00;12.07;;;3.20;99.90;;;;;;4225125;28;20768;-64
2021/11/28 03:55:54;;;;;;;20.73;12.00;;;3.20;99.90;;;;;;4225107;28;20750;-65
2021/11/28 03:57:55;;;;;;;19.43;11.50;;;3.10;99.90;;;;;;4225159;28;20321;-65
2021/11/28 03:59:56;;;;;;;18.47;11.10;;;3.20;99.90;;;;;;4224842;28;20264;-64
2021/11/28 04:01:58;;;;;;;19.73;11.20;;;3.20;99.90;;;;;;4224931;28;20264;-65
2021/11/28 04:03:59;;;;;;;43.30;12.37;;;3.20;99.90;;;;;;4225077;28;20771;-62
2021/11/28 04:06:01;;;;;;;16.27;11.17;;;3.20;99.90;;;;;;4225109;28;20260;-63
2021/11/28 04:08:02;;;;;;;19.07;11.77;;;3.30;99.90;;;;;;4225315;28;20256;-65
2021/11/28 04:10:06;;;;;;;21.27;12.10;;;3.20;99.90;;;;;;4224972;28;20279;-64
2021/11/28 04:12:08;;;;;;;20.60;11.50;;;3.20;99.90;;;;;;4225054;28;20325;-63
2021/11/28 04:14:10;;;;;;;17.33;10.60;;;3.30;99.90;;;;;;4225261;28;20264;-63
2021/11/28 04:16:11;;;;;;;19.37;11.10;;;3.30;99.90;;;;;;4224991;28;20264;-64
2021/11/28 04:18:13;;;;;;;17.43;11.23;;;3.30;99.90;;;;;;4225050;28;20264;-67
2021/11/28 04:20:14;;;;;;;20.23;11.67;;;3.30;99.90;;;;;;4224464;28;20673;-64
2021/11/28 04:22:15;;;;;;;19.73;11.27;;;3.40;99.90;;;;;;4225116;27;20280;-63
2021/11/28 04:24:16;;;;;;;20.37;12.57;;;3.40;99.90;;;;;;4224118;28;20341;-67
2021/11/28 04:26:18;;;;;;;23.97;12.50;;;3.40;99.90;;;;;;4224696;28;20265;-63
2021/11/28 04:28:19;;;;;;;19.83;11.33;;;3.50;99.90;;;;;;4224753;27;20333;-64
2021/11/28 04:30:20;;;;;;;18.10;11.50;;;3.50;99.90;;;;;;4224794;27;20313;-62
2021/11/28 04:32:21;;;;;;;22.87;12.17;;;3.50;99.90;;;;;;4224219;28;20260;-65
2021/11/28 04:34:22;;;;;;;18.77;11.00;;;3.50;99.90;;;;;;4224618;28;20268;-63
2021/11/28 04:36:24;;;;;;;16.67;10.93;;;3.50;99.90;;;;;;4224126;28;20272;-67
2021/11/28 04:38:26;;;;;;;19.30;11.63;;;3.60;99.90;;;;;;4224531;28;20298;-62
2021/11/28 04:40:27;;;;;;;18.90;11.40;;;3.60;99.90;;;;;;4223104;27;20272;-67
2021/11/28 04:42:28;;;;;;;26.13;12.70;;;3.60;99.90;;;;;;4224411;28;20271;-64
2021/11/28 04:44:30;;;;;;;16.23;11.20;;;3.60;99.90;;;;;;4224047;28;20775;-64
2021/11/28 04:46:31;;;;;;;17.67;10.90;;;3.60;99.90;;;;;;4224593;27;20329;-64
2021/11/28 04:48:32;;;;;;;20.70;11.03;;;3.60;99.90;;;;;;4223097;27;20277;-66
2021/11/28 04:50:33;;;;;;;18.63;11.00;;;3.60;99.90;;;;;;4224087;28;20268;-64
2021/11/28 04:52:35;;;;;;;18.43;11.57;;;3.60;99.90;;;;;;4224171;28;20828;-63
2021/11/28 04:54:36;;;;;;;20.90;11.97;;;3.60;99.90;;;;;;4223277;28;20299;-64
2021/11/28 04:56:37;;;;;;;21.10;12.03;;;3.70;99.90;;;;;;4224625;27;20333;-63
2021/11/28 04:58:39;;;;;;;20.93;11.47;;;3.70;99.90;;;;;;4224072;28;20264;-66
2021/11/28 05:00:40;;;;;;;20.33;12.30;;;3.70;99.90;;;;;;4223170;27;20280;-63
2021/11/28 05:02:41;;;;;;;20.93;11.93;;;3.80;99.90;;;;;;4224026;28;20433;-65
2021/11/28 05:04:42;;;;;;;19.67;11.47;;;3.80;99.90;;;;;;4223598;28;20295;-67
2021/11/28 05:06:44;;;;;;;19.80;10.60;;;3.80;99.90;;;;;;4224087;28;20309;-63
2021/11/28 05:08:45;;;;;;;20.77;11.47;;;3.80;99.90;;;;;;4223505;28;20268;-64
2021/11/28 05:10:46;;;;;;;18.23;10.43;;;3.80;99.90;;;;;;4224076;27;20280;-64
2021/11/28 05:12:48;;;;;;;19.83;12.00;;;3.90;99.90;;;;;;4223854;28;20380;-65
2021/11/28 05:14:49;;;;;;;16.03;10.50;;;3.90;99.90;;;;;;4223977;27;20819;-64
2021/11/28 05:16:51;;;;;;;19.47;11.50;;;3.90;99.90;;;;;;4223892;28;20320;-64
2021/11/28 05:18:52;;;;;;;17.83;11.20;;;4.00;99.90;;;;;;4224170;27;20371;-65
2021/11/28 05:20:53;;;;;;;19.10;11.43;;;4.00;99.90;;;;;;4223603;28;20284;-64
2021/11/28 05:22:54;;;;;;;18.87;11.93;;;4.10;99.90;;;;;;4224020;28;20665;-65
2021/11/28 05:24:56;;;;;;;21.37;11.20;;;4.10;99.90;;;;;;4223500;28;20423;-64
2021/11/28 05:26:57;;;;;;;14.63;10.37;;;4.10;99.90;;;;;;4224224;28;20677;-66
2021/11/28 05:28:58;;;;;;;17.47;10.83;;;4.10;99.90;;;;;;4223366;28;20336;-64
2021/11/28 05:30:59;;;;;;;16.97;11.37;;;4.10;99.90;;;;;;4223879;28;20320;-63
2021/11/28 05:33:00;;;;;;;16.67;10.63;;;4.20;99.90;;;;;;4223804;28;20328;-64
2021/11/28 05:35:01;;;;;;;18.60;10.93;;;4.20;99.90;;;;;;4223301;27;20321;-64
2021/11/28 05:37:03;;;;;;;17.23;10.87;;;4.20;99.90;;;;;;4223096;28;20299;-65
2021/11/28 05:39:04;;;;;;;20.83;13.00;;;4.20;99.90;;;;;;4223359;28;20280;-64
2021/11/28 05:41:06;;;;;;;22.13;14.10;;;4.20;99.90;;;;;;4223021;28;20280;-64
2021/11/28 05:43:07;;;;;;;21.40;13.90;;;4.20;99.90;;;;;;4223221;28;20268;-65
2021/11/28 05:45:08;;;;;;;23.73;14.20;;;4.20;99.90;;;;;;4222884;28;20284;-64
2021/11/28 05:47:10;;;;;;;22.70;14.40;;;4.20;99.90;;;;;;4223436;28;20848;-64
2021/11/28 05:49:11;;;;;;;31.30;18.83;;;4.20;99.90;;;;;;4223456;27;20333;-64
2021/11/28 05:51:12;;;;;;;34.77;22.13;;;4.10;99.90;;;;;;4223186;28;20329;-67
2021/11/28 05:53:15;;;;;;;32.97;20.93;;;4.10;99.90;;;;;;4222898;28;20276;-69
2021/11/28 05:55:16;;;;;;;37.27;22.37;;;4.00;99.90;;;;;;4223322;27;20739;-65
2021/11/28 05:57:18;;;;;;;35.43;20.33;;;4.00;99.90;;;;;;4223874;27;20324;-65
2021/11/28 05:59:19;;;;;;;33.40;20.33;;;4.00;99.90;;;;;;4222665;27;20275;-65
2021/11/28 06:01:22;;;;;;;32.03;19.57;;;4.00;99.90;;;;;;4223199;28;20259;-65
2021/11/28 06:03:23;;;;;;;29.97;19.00;;;4.00;99.90;;;;;;4222892;28;20340;-68
2021/11/28 06:05:25;;;;;;;31.77;17.43;;;3.90;99.90;;;;;;4223022;27;20704;-65
2021/11/28 06:07:26;;;;;;;26.03;15.17;;;3.90;99.90;;;;;;4222519;28;20284;-65
2021/11/28 06:09:27;;;;;;;30.30;18.63;;;4.00;99.90;;;;;;4222793;28;21045;-64
2021/11/28 06:11:29;;;;;;;31.10;19.03;;;4.00;99.90;;;;;;4222689;28;20325;-63
2021/11/28 06:13:30;;;;;;;32.53;20.37;;;4.00;99.90;;;;;;4223227;28;20318;-63
2021/11/28 06:15:31;;;;;;;33.27;20.23;;;4.00;99.90;;;;;;4222828;28;20309;-67
2021/11/28 06:17:33;;;;;;;35.67;19.93;;;4.10;99.90;;;;;;4222716;28;20272;-66
2021/11/28 06:19:34;;;;;;;29.97;18.03;;;4.10;99.90;;;;;;4223209;28;20264;-64
2021/11/28 06:21:35;;;;;;;29.87;19.17;;;4.10;99.90;;;;;;4222586;28;20688;-64
2021/11/28 06:23:37;;;;;;;25.47;16.20;;;4.10;99.90;;;;;;4223029;27;20333;-66
2021/11/28 06:25:38;;;;;;;23.67;13.67;;;4.10;99.90;;;;;;4222512;28;20341;-63
2021/11/28 06:27:39;;;;;;;23.87;14.33;;;4.10;99.90;;;;;;4223067;28;20317;-64
2021/11/28 06:29:40;;;;;;;24.67;15.27;;;4.10;99.90;;;;;;4222607;28;20272;-64
2021/11/28 06:31:41;;;;;;;22.43;13.47;;;4.10;99.90;;;;;;4222538;28;20260;-64
2021/11/28 06:33:42;;;;;;;18.63;11.60;;;4.20;99.90;;;;;;4222220;28;20264;-67
2021/11/28 06:35:44;;;;;;;18.83;11.53;;;4.20;99.90;;;;;;4222066;28;20276;-65
2021/11/28 06:37:46;;;;;;;20.33;12.10;;;4.40;99.90;;;;;;4222616;28;21195;-66
2021/11/28 06:39:47;;;;;;;17.50;12.13;;;4.70;99.90;;;;;;4222846;27;20268;-64
2021/11/28 06:41:49;;;;;;;14.80;10.10;;;5.00;99.90;;;;;;4222098;28;20301;-63
2021/11/28 06:43:50;;;;;;;16.23;9.70;;;5.00;99.90;;;;;;4222382;27;20263;-65
2021/11/28 06:45:51;;;;;;;15.07;9.00;;;5.00;99.90;;;;;;4222371;28;20288;-67
2021/11/28 06:47:53;;;;;;;14.77;10.03;;;5.00;99.90;;;;;;4222264;28;20268;-63
2021/11/28 06:49:54;;;;;;;22.63;13.23;;;5.00;99.90;;;;;;4221992;28;20665;-63
2021/11/28 06:51:57;;;;;;;25.33;13.47;;;4.90;99.90;;;;;;4222428;28;20264;-63
2021/11/28 06:53:58;;;;;;;23.63;13.33;;;4.90;99.90;;;;;;4222320;28;20540;-63
2021/11/28 06:56:03;;;;;;;22.13;13.03;;;4.90;99.90;;;;;;4222062;28;20272;-64
2021/11/28 06:58:04;;;;;;;27.60;15.17;;;4.90;99.90;;;;;;4222550;28;20648;-63
2021/11/28 07:00:06;;;;;;;25.13;13.27;;;4.90;99.90;;;;;;4221928;28;20282;-63
2021/11/28 07:02:09;;;;;;;23.70;14.60;;;4.90;99.90;;;;;;4222175;28;20039;-65
2021/11/28 07:04:10;;;;;;;27.27;14.60;;;4.90;99.90;;;;;;4221864;28;20268;-65
2021/11/28 07:06:11;;;;;;;27.03;15.63;;;4.90;99.90;;;;;;4222284;28;20344;-64
2021/11/28 07:08:12;;;;;;;24.20;14.67;;;4.90;99.90;;;;;;4222146;28;20313;-64
2021/11/28 07:10:13;;;;;;;22.30;13.13;;;4.90;99.90;;;;;;4221863;28;20911;-63
2021/11/28 07:12:14;;;;;;;23.77;12.90;;;4.90;99.90;;;;;;4222011;28;20263;-64
2021/11/28 07:14:17;;;;;;;22.90;15.30;;;4.90;99.90;;;;;;4221888;28;20268;-64
2021/11/28 07:16:19;;;;;;;16.67;10.53;;;4.90;99.90;;;;;;4222063;28;20291;-63
2021/11/28 07:18:20;;;;;;;21.43;12.30;;;4.90;99.90;;;;;;4225462;28;20306;-63
2021/11/28 07:20:22;;;;;;;18.27;11.23;;;4.90;99.90;;;;;;4225617;28;20264;-62
2021/11/28 07:22:23;;;;;;;20.03;11.83;;;4.90;99.90;;;;;;4224863;27;20276;-63
2021/11/28 07:24:24;;;;;;;20.40;13.07;;;4.90;99.90;;;;;;4225569;28;20279;-63
2021/11/28 07:26:25;;;;;;;19.23;11.80;;;5.00;99.90;;;;;;4225832;27;20276;-62
2021/11/28 07:28:26;;;;;;;17.93;11.03;;;5.00;99.90;;;;;;4226325;27;20276;-62
2021/11/28 07:30:29;;;;;;;15.40;10.03;;;5.00;99.90;;;;;;4225316;28;20321;-65
2021/11/28 07:32:30;;;;;;;17.80;9.43;;;5.00;99.90;;;;;;4225157;28;20031;-63
2021/11/28 07:34:31;;;;;;;16.63;10.57;;;5.00;99.90;;;;;;4224879;28;20332;-62
2021/11/28 07:36:32;;;;;;;20.53;12.23;;;5.00;99.90;;;;;;4225193;28;20376;-74
2021/11/28 07:38:35;;;;;;;49.77;23.97;;;5.00;99.90;;;;;;4225100;28;20348;-66
2021/11/28 07:40:36;;;;;;;37.77;19.93;;;5.10;99.90;;;;;;4225278;28;20260;-61
2021/11/28 07:42:37;;;;;;;23.10;13.70;;;5.10;99.90;;;;;;4224818;27;20268;-67
2021/11/28 07:44:39;;;;;;;26.67;15.77;;;5.10;99.90;;;;;;4224959;28;20284;-64
2021/11/28 07:46:40;;;;;;;31.07;18.73;;;5.10;99.90;;;;;;4224874;28;20317;-72
2021/11/28 07:48:41;;;;;;;26.87;17.37;;;5.20;99.90;;;;;;4225032;28;20264;-62
2021/11/28 07:50:42;;;;;;;27.53;16.87;;;5.20;99.90;;;;;;4224777;27;20667;-60
2021/11/28 07:52:44;;;;;;;23.70;15.97;;;5.20;99.90;;;;;;4224916;27;20854;-64
2021/11/28 07:54:45;;;;;;;21.50;14.33;;;5.30;99.90;;;;;;4224650;28;20545;-59
2021/11/28 07:56:47;;;;;;;19.90;12.90;;;5.30;99.90;;;;;;4223510;27;20314;-65
2021/11/28 07:58:49;;;;;;;23.57;14.53;;;5.40;99.90;;;;;;4225358;28;20429;-61
2021/11/28 08:00:51;;;;;;;24.23;15.20;;;5.40;99.90;;;;;;4224833;27;20292;-61
2021/11/28 08:02:52;;;;;;;27.50;17.53;;;5.40;99.90;;;;;;4225126;27;20268;-61
2021/11/28 08:04:53;;;;;;;21.57;13.87;;;5.50;99.90;;;;;;4224474;28;20704;-66
2021/11/28 08:06:54;;;;;;;25.20;12.73;;;5.50;99.90;;;;;;4224875;27;20088;-62
2021/11/28 08:08:55;;;;;;;26.37;15.67;;;5.60;99.90;;;;;;4224281;28;20089;-64
2021/11/28 08:10:56;;;;;;;21.30;14.00;;;5.60;99.90;;;;;;4224176;28;20280;-66
2021/11/28 08:12:58;;;;;;;20.10;11.80;;;5.60;99.90;;;;;;4224532;28;20069;-63
2021/11/28 08:14:59;;;;;;;23.20;13.63;;;5.60;99.90;;;;;;4225436;27;20280;-60
2021/11/28 08:17:00;;;;;;;21.30;11.57;;;5.60;99.90;;;;;;4224513;28;20081;-61
2021/11/28 08:19:02;;;;;;;18.03;11.27;;;5.60;99.90;;;;;;4224654;28;20039;-61
2021/11/28 08:21:03;;;;;;;17.87;11.50;;;5.60;99.90;;;;;;4224605;28;20751;-62
2021/11/28 08:23:04;;;;;;;21.57;13.07;;;5.70;99.90;;;;;;4224416;28;20081;-64
2021/11/28 08:25:09;;;;;;;22.83;12.80;;;5.70;99.90;;;;;;4224519;28;20396;-62
2021/11/28 08:27:10;;;;;;;22.07;13.10;;;5.80;99.90;;;;;;4224706;27;20051;-61
2021/11/28 08:29:12;;;;;;;24.30;12.53;;;5.90;99.90;;;;;;4224188;28;20796;-63
2021/11/28 08:31:13;;;;;;;19.43;12.00;;;6.00;99.90;;;;;;4224166;27;20044;-61
2021/11/28 08:33:14;;;;;;;27.47;14.07;;;6.00;99.90;;;;;;4223910;28;20321;-62
2021/11/28 08:35:16;;;;;;;27.77;14.03;;;6.10;99.90;;;;;;4224101;28;20099;-61
2021/11/28 08:37:18;;;;;;;23.77;14.30;;;6.20;99.90;;;;;;4223985;28;20031;-60
2021/11/28 08:39:19;;;;;;;22.40;14.37;;;6.30;99.90;;;;;;4223987;27;20039;-71
2021/11/28 08:41:22;;;;;;;24.77;15.30;;;6.40;99.90;;;;;;4224386;27;20044;-64
2021/11/28 08:43:23;;;;;;;35.67;16.77;;;6.50;99.90;;;;;;4223770;28;20035;-73
2021/11/28 08:45:25;;;;;;;26.53;16.70;;;6.70;99.90;;;;;;4223486;28;20039;-62
2021/11/28 08:47:26;;;;;;;30.63;16.73;;;6.80;99.90;;;;;;4223539;28;20027;-66
2021/11/28 08:49:28;;;;;;;26.77;17.40;;;6.90;99.90;;;;;;4224268;28;20032;-62
2021/11/28 08:51:29;;;;;;;28.00;16.80;;;7.10;99.90;;;;;;4223794;27;20031;-64
2021/11/28 08:53:30;;;;;;;26.67;16.03;;;7.20;99.90;;;;;;4222381;27;20085;-63
2021/11/28 08:55:33;;;;;;;27.27;17.13;;;7.30;99.90;;;;;;4223931;28;20369;-63
2021/11/28 08:57:35;;;;;;;21.63;14.63;;;7.40;99.90;;;;;;4223935;28;20044;-68
2021/11/28 08:59:36;;;;;;;21.53;14.63;;;7.60;99.90;;;;;;4224203;28;20092;-66
2021/11/28 09:01:38;;;;;;;24.23;15.00;;;7.80;99.90;;;;;;4223997;28;20101;-63
2021/11/28 09:03:39;;;;;;;23.47;14.67;;;8.10;99.90;;;;;;4223565;28;20101;-64
2021/11/28 09:05:40;;;;;;;25.63;16.27;;;8.50;99.90;;;;;;4223237;28;20084;-61
2021/11/28 09:07:41;;;;;;;21.73;14.63;;;8.70;99.90;;;;;;4223287;27;20035;-63
2021/11/28 09:09:42;;;;;;;22.17;14.23;;;8.90;99.90;;;;;;4221071;28;20039;-62
2021/11/28 09:11:44;;;;;;;22.00;12.70;;;9.10;99.90;;;;;;4222860;28;20051;-65
2021/11/28 09:13:45;;;;;;;21.83;12.00;;;9.40;99.90;;;;;;4223394;27;20032;-62
2021/11/28 09:15:47;;;;;;;18.30;11.53;;;9.50;99.90;;;;;;4223282;28;20120;-64
2021/11/28 09:17:55;;;;;;;20.63;12.70;;;9.60;99.90;;;;;;4223092;27;20032;-61
2021/11/28 09:22:05;;;;;;;18.47;11.30;;;9.80;99.90;;;;;;4222979;28;20076;-62
2021/11/28 09:26:27;;;;;;;25.73;14.02;;;9.90;99.90;;;;;;4222760;28;20036;-62
2021/11/28 09:28:29;;;;;;;27.27;15.27;;;9.90;99.90;;;;;;4223372;28;20083;-62
2021/11/28 09:30:30;;;;;;;23.13;13.63;;;9.90;99.90;;;;;;4222870;28;20028;-62
2021/11/28 09:32:31;;;;;;;20.77;12.60;;;9.90;99.90;;;;;;4223331;28;20032;-60
2021/11/28 09:34:33;;;;;;;18.30;10.03;;;10.00;99.90;;;;;;4221841;28;20528;-62
2021/11/28 09:36:34;;;;;;;10.10;6.27;;;10.10;99.90;;;;;;4222897;28;20478;-62
2021/11/28 09:38:36;;;;;;;12.50;6.80;;;10.20;99.90;;;;;;4223539;27;20462;-65
2021/11/28 09:40:43;;;;;;;11.27;6.27;;;10.20;99.90;;;;;;4222534;28;20080;-64
2021/11/28 09:42:51;;;;;;;12.40;6.60;;;10.20;99.90;;;;;;4222776;27;20084;-63
2021/11/28 09:44:53;;;;;;;10.53;6.80;;;10.40;99.90;;;;;;4222475;28;20027;-62
2021/11/28 09:46:55;;;;;;;12.50;7.67;;;10.30;99.90;;;;;;4222964;28;20471;-67
2021/11/28 09:49:01;;;;;;;13.90;7.20;;;10.40;99.90;;;;;;4222480;28;20451;-62
2021/11/28 09:51:04;;;;;;;10.20;7.13;;;10.50;99.90;;;;;;4222432;28;20031;-62
2021/11/28 09:53:07;;;;;;;11.13;7.27;;;10.50;99.90;;;;;;4222204;28;20032;-66
2021/11/28 09:55:11;;;;;;;11.50;7.27;;;10.50;99.90;;;;;;4222275;28;20080;-62
2021/11/28 09:57:15;;;;;;;12.23;6.63;;;10.60;99.90;;;;;;4222475;28;20945;-62
2021/11/28 09:59:17;;;;;;;11.33;6.73;;;10.70;99.90;;;;;;4222928;28;20088;-63
2021/11/28 10:01:18;;;;;;;11.13;5.93;;;10.70;99.90;;;;;;4221695;28;20142;-62
2021/11/28 10:03:20;;;;;;;8.23;5.63;;;10.80;99.90;;;;;;4222362;28;20552;-64
2021/11/28 10:05:21;;;;;;;11.27;5.83;;;10.80;99.90;;;;;;4222280;28;20098;-61
2021/11/28 10:07:23;;;;;;;11.13;5.93;;;10.80;99.90;;;;;;4222349;28;20100;-61
2021/11/28 10:09:24;;;;;;;8.87;5.17;;;10.90;99.90;;;;;;4222369;28;20092;-62
2021/11/28 10:11:40;;;;;;;8.63;5.90;;;10.90;99.90;;;;;;4222693;27;20100;-61
2021/11/28 10:13:42;;;;;;;9.40;5.23;;;10.90;99.90;;;;;;4222486;28;20031;-62
2021/11/28 10:15:45;;;;;;;10.10;5.40;;;10.80;99.90;;;;;;4222617;28;20437;-62
2021/11/28 10:17:47;;;;;;;9.07;5.47;;;10.90;99.90;;;;;;4222520;28;20024;-61
2021/11/28 10:19:48;;;;;;;9.83;6.27;;;11.00;99.90;;;;;;4221973;28;20027;-63
2021/11/28 10:21:49;;;;;;;8.87;5.40;;;11.10;99.90;;;;;;4222443;28;20031;-63
2021/11/28 10:24:13;;;;;;;10.07;5.47;;;11.10;99.90;;;;;;4222645;27;20043;-62
2021/11/28 10:26:16;;;;;;;11.53;6.00;;;11.10;99.90;;;;;;4221649;28;20059;-64
2021/11/28 10:28:19;;;;;;;8.97;5.40;;;11.10;99.90;;;;;;4222414;28;20103;-61
2021/11/28 10:30:29;;;;;;;8.93;5.10;;;11.20;99.90;;;;;;4222417;28;20027;-62
2021/11/28 10:32:30;;;;;;;8.65;5.68;;;11.30;99.90;;;;;;4222021;28;20092;-63
2021/11/28 10:34:38;;;;;;;10.07;5.53;;;11.40;99.90;;;;;;4222175;28;20069;-63
2021/11/28 10:36:39;;;;;;;9.27;5.10;;;11.50;99.90;;;;;;4221716;28;20016;-61
2021/11/28 10:38:44;;;;;;;9.57;4.83;;;11.60;99.90;;;;;;4221747;28;20085;-63